sensor_id;sensor_type;location;lat;lon;timestamp;P1;durP1;ratioP1;P2;durP2;ratioP2
2998;SDS011;1509;51.964;7.628;2024-03-08T00:00:14;24.80;;;14.57;;
2998;SDS011;1509;51.964;7.628;2024-03-08T00:02:45;21.57;;;13.70;;
2998;SDS011;1509;51.964;7.628;2024-03-08T00:05:12;23.13;;;13.90;;
2998;SDS011;1509;51.964;7.628;2024-03-08T00:07:38;26.73;;;16.03;;
2998;SDS011;1509;51.964;7.628;2024-03-08T00:10:05;23.60;;;14.37;;
2998;SDS011;1509;51.964;7.628;2024-03-08T00:12:36;25.27;;;15.30;;
2998;SDS011;1509;51.964;7.628;2024-03-08T00:15:02;25.23;;;15.97;;
2998;SDS011;1509;51.964;7.628;2024-03-08T00:17:28;26.07;;;16.50;;
2998;SDS011;1509;51.964;7.628;2024-03-08T00:19:54;23.10;;;15.27;;
2998;SDS011;1509;51.964;7.628;2024-03-08T00:22:20;26.90;;;15.67;;
2998;SDS011;1509;51.964;7.628;2024-03-08T00:24:47;22.30;;;15.70;;
2998;SDS011;1509;51.964;7.628;2024-03-08T00:27:14;26.13;;;16.70;;
2998;SDS011;1509;51.964;7.628;2024-03-08T00:29:40;23.57;;;14.93;;
2998;SDS011;1509;51.964;7.628;2024-03-08T00:32:06;26.53;;;15.50;;
2998;SDS011;1509;51.964;7.628;2024-03-08T00:34:34;20.80;;;15.13;;
2998;SDS011;1509;51.964;7.628;2024-03-08T00:37:02;21.63;;;13.70;;
2998;SDS011;1509;51.964;7.628;2024-03-08T00:39:28;22.43;;;15.90;;
2998;SDS011;1509;51.964;7.628;2024-03-08T00:41:53;24.77;;;15.50;;
2998;SDS011;1509;51.964;7.628;2024-03-08T00:44:19;20.63;;;15.63;;
2998;SDS011;1509;51.964;7.628;2024-03-08T00:46:45;25.10;;;16.07;;
2998;SDS011;1509;51.964;7.628;2024-03-08T00:49:10;22.70;;;15.63;;
2998;SDS011;1509;51.964;7.628;2024-03-08T00:51:37;25.93;;;15.30;;
2998;SDS011;1509;51.964;7.628;2024-03-08T00:54:03;26.70;;;15.87;;
2998;SDS011;1509;51.964;7.628;2024-03-08T00:56:28;22.43;;;15.83;;
2998;SDS011;1509;51.964;7.628;2024-03-08T00:58:54;25.07;;;16.43;;
2998;SDS011;1509;51.964;7.628;2024-03-08T01:01:20;29.80;;;16.13;;
2998;SDS011;1509;51.964;7.628;2024-03-08T01:03:45;25.57;;;17.03;;
2998;SDS011;1509;51.964;7.628;2024-03-08T01:06:11;27.83;;;16.07;;
2998;SDS011;1509;51.964;7.628;2024-03-08T01:08:37;25.57;;;17.10;;
2998;SDS011;1509;51.964;7.628;2024-03-08T01:11:03;24.73;;;15.83;;
2998;SDS011;1509;51.964;7.628;2024-03-08T01:13:29;28.07;;;16.10;;
2998;SDS011;1509;51.964;7.628;2024-03-08T01:15:55;25.80;;;15.27;;
2998;SDS011;1509;51.964;7.628;2024-03-08T01:18:24;21.77;;;15.47;;
2998;SDS011;1509;51.964;7.628;2024-03-08T01:20:49;25.20;;;15.37;;
2998;SDS011;1509;51.964;7.628;2024-03-08T01:23:15;27.37;;;17.20;;
2998;SDS011;1509;51.964;7.628;2024-03-08T01:25:41;26.40;;;17.60;;
2998;SDS011;1509;51.964;7.628;2024-03-08T01:28:08;28.43;;;18.00;;
2998;SDS011;1509;51.964;7.628;2024-03-08T01:30:34;25.87;;;16.07;;
2998;SDS011;1509;51.964;7.628;2024-03-08T01:33:01;25.67;;;14.97;;
2998;SDS011;1509;51.964;7.628;2024-03-08T01:35:27;27.17;;;15.80;;
2998;SDS011;1509;51.964;7.628;2024-03-08T01:37:53;24.13;;;16.10;;
2998;SDS011;1509;51.964;7.628;2024-03-08T01:40:18;22.37;;;16.63;;
2998;SDS011;1509;51.964;7.628;2024-03-08T01:42:44;26.77;;;16.27;;
2998;SDS011;1509;51.964;7.628;2024-03-08T01:45:10;28.17;;;17.20;;
2998;SDS011;1509;51.964;7.628;2024-03-08T01:47:35;27.80;;;17.43;;
2998;SDS011;1509;51.964;7.628;2024-03-08T01:50:02;24.93;;;16.67;;
2998;SDS011;1509;51.964;7.628;2024-03-08T01:52:29;29.40;;;18.17;;
2998;SDS011;1509;51.964;7.628;2024-03-08T01:54:57;22.17;;;15.37;;
2998;SDS011;1509;51.964;7.628;2024-03-08T01:57:27;27.03;;;17.20;;
2998;SDS011;1509;51.964;7.628;2024-03-08T01:59:53;31.10;;;16.17;;
2998;SDS011;1509;51.964;7.628;2024-03-08T02:02:20;30.27;;;16.63;;
2998;SDS011;1509;51.964;7.628;2024-03-08T02:04:47;25.50;;;16.53;;
2998;SDS011;1509;51.964;7.628;2024-03-08T02:07:13;31.70;;;17.43;;
2998;SDS011;1509;51.964;7.628;2024-03-08T02:09:38;23.70;;;16.20;;
2998;SDS011;1509;51.964;7.628;2024-03-08T02:12:05;26.97;;;16.70;;
2998;SDS011;1509;51.964;7.628;2024-03-08T02:14:31;26.77;;;17.03;;
2998;SDS011;1509;51.964;7.628;2024-03-08T02:17:00;24.70;;;16.30;;
2998;SDS011;1509;51.964;7.628;2024-03-08T02:19:26;23.57;;;16.37;;
2998;SDS011;1509;51.964;7.628;2024-03-08T02:21:51;26.50;;;15.47;;
2998;SDS011;1509;51.964;7.628;2024-03-08T02:24:18;30.47;;;16.57;;
2998;SDS011;1509;51.964;7.628;2024-03-08T02:26:44;31.17;;;18.43;;
2998;SDS011;1509;51.964;7.628;2024-03-08T02:29:09;25.00;;;18.20;;
2998;SDS011;1509;51.964;7.628;2024-03-08T02:31:38;26.37;;;16.87;;
2998;SDS011;1509;51.964;7.628;2024-03-08T02:34:04;32.50;;;18.70;;
2998;SDS011;1509;51.964;7.628;2024-03-08T02:36:30;31.07;;;19.20;;
2998;SDS011;1509;51.964;7.628;2024-03-08T02:39:00;26.13;;;16.60;;
2998;SDS011;1509;51.964;7.628;2024-03-08T02:41:28;32.77;;;17.37;;
2998;SDS011;1509;51.964;7.628;2024-03-08T02:43:54;24.07;;;16.00;;
2998;SDS011;1509;51.964;7.628;2024-03-08T02:46:23;25.23;;;17.70;;
2998;SDS011;1509;51.964;7.628;2024-03-08T02:48:49;29.20;;;18.90;;
2998;SDS011;1509;51.964;7.628;2024-03-08T02:51:15;28.00;;;18.00;;
2998;SDS011;1509;51.964;7.628;2024-03-08T02:53:41;29.73;;;18.60;;
2998;SDS011;1509;51.964;7.628;2024-03-08T02:56:08;30.97;;;19.00;;
2998;SDS011;1509;51.964;7.628;2024-03-08T02:58:37;32.70;;;18.67;;
2998;SDS011;1509;51.964;7.628;2024-03-08T03:01:03;28.00;;;17.60;;
2998;SDS011;1509;51.964;7.628;2024-03-08T03:03:29;26.50;;;17.40;;
2998;SDS011;1509;51.964;7.628;2024-03-08T03:05:54;25.80;;;18.60;;
2998;SDS011;1509;51.964;7.628;2024-03-08T03:08:22;28.20;;;17.37;;
2998;SDS011;1509;51.964;7.628;2024-03-08T03:10:48;22.60;;;16.47;;
2998;SDS011;1509;51.964;7.628;2024-03-08T03:13:14;27.73;;;17.50;;
2998;SDS011;1509;51.964;7.628;2024-03-08T03:15:40;26.10;;;17.10;;
2998;SDS011;1509;51.964;7.628;2024-03-08T03:18:07;30.87;;;18.37;;
2998;SDS011;1509;51.964;7.628;2024-03-08T03:20:33;28.60;;;19.30;;
2998;SDS011;1509;51.964;7.628;2024-03-08T03:23:02;26.40;;;19.43;;
2998;SDS011;1509;51.964;7.628;2024-03-08T03:25:28;24.73;;;17.40;;
2998;SDS011;1509;51.964;7.628;2024-03-08T03:27:58;34.27;;;18.47;;
2998;SDS011;1509;51.964;7.628;2024-03-08T03:30:25;29.00;;;17.77;;
2998;SDS011;1509;51.964;7.628;2024-03-08T03:32:58;31.03;;;19.97;;
2998;SDS011;1509;51.964;7.628;2024-03-08T03:35:31;30.27;;;18.90;;
2998;SDS011;1509;51.964;7.628;2024-03-08T03:37:57;32.83;;;19.03;;
2998;SDS011;1509;51.964;7.628;2024-03-08T03:40:27;33.10;;;16.90;;
2998;SDS011;1509;51.964;7.628;2024-03-08T03:42:54;25.20;;;17.17;;
2998;SDS011;1509;51.964;7.628;2024-03-08T03:45:19;26.20;;;19.27;;
2998;SDS011;1509;51.964;7.628;2024-03-08T03:47:45;34.73;;;19.37;;
2998;SDS011;1509;51.964;7.628;2024-03-08T03:50:11;26.83;;;17.90;;
2998;SDS011;1509;51.964;7.628;2024-03-08T03:52:36;27.43;;;18.07;;
2998;SDS011;1509;51.964;7.628;2024-03-08T03:55:03;34.77;;;19.70;;
2998;SDS011;1509;51.964;7.628;2024-03-08T03:57:29;30.47;;;18.70;;
2998;SDS011;1509;51.964;7.628;2024-03-08T03:59:55;36.37;;;18.83;;
2998;SDS011;1509;51.964;7.628;2024-03-08T04:02:23;28.97;;;19.87;;
2998;SDS011;1509;51.964;7.628;2024-03-08T04:04:51;35.17;;;19.00;;
2998;SDS011;1509;51.964;7.628;2024-03-08T04:07:20;30.70;;;19.33;;
2998;SDS011;1509;51.964;7.628;2024-03-08T04:09:46;29.77;;;19.03;;
2998;SDS011;1509;51.964;7.628;2024-03-08T04:12:12;27.23;;;19.03;;
2998;SDS011;1509;51.964;7.628;2024-03-08T04:14:41;33.60;;;19.63;;
2998;SDS011;1509;51.964;7.628;2024-03-08T04:17:07;31.17;;;19.67;;
2998;SDS011;1509;51.964;7.628;2024-03-08T04:19:34;27.07;;;18.60;;
2998;SDS011;1509;51.964;7.628;2024-03-08T04:22:00;31.57;;;19.67;;
2998;SDS011;1509;51.964;7.628;2024-03-08T04:24:27;38.83;;;18.43;;
2998;SDS011;1509;51.964;7.628;2024-03-08T04:26:52;38.53;;;19.10;;
2998;SDS011;1509;51.964;7.628;2024-03-08T04:29:18;31.80;;;19.73;;
2998;SDS011;1509;51.964;7.628;2024-03-08T04:31:44;26.67;;;17.20;;
2998;SDS011;1509;51.964;7.628;2024-03-08T04:34:10;34.83;;;19.37;;
2998;SDS011;1509;51.964;7.628;2024-03-08T04:36:36;33.50;;;20.60;;
2998;SDS011;1509;51.964;7.628;2024-03-08T04:39:01;28.90;;;19.20;;
2998;SDS011;1509;51.964;7.628;2024-03-08T04:41:28;33.37;;;18.90;;
2998;SDS011;1509;51.964;7.628;2024-03-08T04:43:55;29.57;;;18.93;;
2998;SDS011;1509;51.964;7.628;2024-03-08T04:46:22;30.00;;;18.57;;
2998;SDS011;1509;51.964;7.628;2024-03-08T04:48:51;38.97;;;21.07;;
2998;SDS011;1509;51.964;7.628;2024-03-08T04:51:16;31.63;;;19.50;;
2998;SDS011;1509;51.964;7.628;2024-03-08T04:53:50;32.10;;;20.80;;
2998;SDS011;1509;51.964;7.628;2024-03-08T04:56:15;32.33;;;19.77;;
2998;SDS011;1509;51.964;7.628;2024-03-08T04:58:41;33.20;;;20.80;;
2998;SDS011;1509;51.964;7.628;2024-03-08T05:01:07;32.67;;;18.60;;
2998;SDS011;1509;51.964;7.628;2024-03-08T05:03:35;30.53;;;19.50;;
2998;SDS011;1509;51.964;7.628;2024-03-08T05:06:01;33.00;;;19.53;;
2998;SDS011;1509;51.964;7.628;2024-03-08T05:08:26;30.63;;;20.47;;
2998;SDS011;1509;51.964;7.628;2024-03-08T05:10:52;30.67;;;20.03;;
2998;SDS011;1509;51.964;7.628;2024-03-08T05:13:17;33.50;;;20.03;;
2998;SDS011;1509;51.964;7.628;2024-03-08T05:15:43;29.73;;;19.77;;
2998;SDS011;1509;51.964;7.628;2024-03-08T05:18:12;34.17;;;20.43;;
2998;SDS011;1509;51.964;7.628;2024-03-08T05:20:39;31.60;;;20.23;;
2998;SDS011;1509;51.964;7.628;2024-03-08T05:23:06;36.17;;;21.90;;
2998;SDS011;1509;51.964;7.628;2024-03-08T05:25:32;38.17;;;22.03;;
2998;SDS011;1509;51.964;7.628;2024-03-08T05:27:57;30.80;;;19.13;;
2998;SDS011;1509;51.964;7.628;2024-03-08T05:30:23;38.30;;;21.90;;
2998;SDS011;1509;51.964;7.628;2024-03-08T05:32:48;34.63;;;20.90;;
2998;SDS011;1509;51.964;7.628;2024-03-08T05:35:14;37.93;;;22.67;;
2998;SDS011;1509;51.964;7.628;2024-03-08T05:37:41;38.80;;;21.23;;
2998;SDS011;1509;51.964;7.628;2024-03-08T05:40:07;32.40;;;18.70;;
2998;SDS011;1509;51.964;7.628;2024-03-08T05:42:40;30.70;;;19.23;;
2998;SDS011;1509;51.964;7.628;2024-03-08T05:45:05;37.70;;;21.73;;
2998;SDS011;1509;51.964;7.628;2024-03-08T05:47:31;35.77;;;20.30;;
2998;SDS011;1509;51.964;7.628;2024-03-08T05:50:00;28.90;;;19.10;;
2998;SDS011;1509;51.964;7.628;2024-03-08T05:52:26;33.63;;;20.50;;
2998;SDS011;1509;51.964;7.628;2024-03-08T05:54:52;33.07;;;20.50;;
2998;SDS011;1509;51.964;7.628;2024-03-08T05:57:18;33.50;;;20.23;;
2998;SDS011;1509;51.964;7.628;2024-03-08T05:59:44;28.10;;;18.47;;
2998;SDS011;1509;51.964;7.628;2024-03-08T06:02:09;32.10;;;19.87;;
2998;SDS011;1509;51.964;7.628;2024-03-08T06:04:41;34.47;;;19.73;;
2998;SDS011;1509;51.964;7.628;2024-03-08T06:07:07;31.57;;;20.00;;
2998;SDS011;1509;51.964;7.628;2024-03-08T06:09:37;32.90;;;20.77;;
2998;SDS011;1509;51.964;7.628;2024-03-08T06:12:03;31.43;;;19.67;;
2998;SDS011;1509;51.964;7.628;2024-03-08T06:14:31;33.40;;;19.57;;
2998;SDS011;1509;51.964;7.628;2024-03-08T06:16:57;31.47;;;20.90;;
2998;SDS011;1509;51.964;7.628;2024-03-08T06:19:23;35.67;;;20.77;;
2998;SDS011;1509;51.964;7.628;2024-03-08T06:21:48;35.90;;;19.67;;
2998;SDS011;1509;51.964;7.628;2024-03-08T06:24:14;33.70;;;21.43;;
2998;SDS011;1509;51.964;7.628;2024-03-08T06:26:40;35.70;;;22.33;;
2998;SDS011;1509;51.964;7.628;2024-03-08T06:29:06;33.20;;;18.27;;
2998;SDS011;1509;51.964;7.628;2024-03-08T06:31:32;31.80;;;19.43;;
2998;SDS011;1509;51.964;7.628;2024-03-08T06:33:57;34.60;;;20.67;;
2998;SDS011;1509;51.964;7.628;2024-03-08T06:36:23;39.17;;;20.67;;
2998;SDS011;1509;51.964;7.628;2024-03-08T06:38:49;34.03;;;21.50;;
2998;SDS011;1509;51.964;7.628;2024-03-08T06:41:15;41.83;;;21.97;;
2998;SDS011;1509;51.964;7.628;2024-03-08T06:43:41;41.67;;;20.90;;
2998;SDS011;1509;51.964;7.628;2024-03-08T06:46:10;32.00;;;19.70;;
2998;SDS011;1509;51.964;7.628;2024-03-08T06:48:39;34.90;;;20.93;;
2998;SDS011;1509;51.964;7.628;2024-03-08T06:51:05;35.67;;;21.40;;
2998;SDS011;1509;51.964;7.628;2024-03-08T06:53:31;35.67;;;20.00;;
2998;SDS011;1509;51.964;7.628;2024-03-08T06:55:57;32.07;;;20.70;;
2998;SDS011;1509;51.964;7.628;2024-03-08T06:58:23;30.47;;;17.40;;
2998;SDS011;1509;51.964;7.628;2024-03-08T07:00:49;28.67;;;17.63;;
2998;SDS011;1509;51.964;7.628;2024-03-08T07:03:18;44.50;;;21.50;;
2998;SDS011;1509;51.964;7.628;2024-03-08T07:05:43;35.70;;;20.03;;
2998;SDS011;1509;51.964;7.628;2024-03-08T07:08:09;40.67;;;21.93;;
2998;SDS011;1509;51.964;7.628;2024-03-08T07:10:36;36.03;;;20.70;;
2998;SDS011;1509;51.964;7.628;2024-03-08T07:13:02;29.90;;;19.87;;
2998;SDS011;1509;51.964;7.628;2024-03-08T07:15:28;32.70;;;19.63;;
2998;SDS011;1509;51.964;7.628;2024-03-08T07:17:54;34.20;;;20.87;;
2998;SDS011;1509;51.964;7.628;2024-03-08T07:20:20;33.33;;;20.97;;
2998;SDS011;1509;51.964;7.628;2024-03-08T07:22:46;34.97;;;18.83;;
2998;SDS011;1509;51.964;7.628;2024-03-08T07:25:19;33.30;;;19.23;;
2998;SDS011;1509;51.964;7.628;2024-03-08T07:27:49;43.87;;;21.60;;
2998;SDS011;1509;51.964;7.628;2024-03-08T07:30:16;36.97;;;19.13;;
2998;SDS011;1509;51.964;7.628;2024-03-08T07:33:02;35.40;;;19.40;;
2998;SDS011;1509;51.964;7.628;2024-03-08T07:35:28;34.97;;;20.30;;
2998;SDS011;1509;51.964;7.628;2024-03-08T07:37:56;30.57;;;17.83;;
2998;SDS011;1509;51.964;7.628;2024-03-08T07:40:21;35.00;;;21.07;;
2998;SDS011;1509;51.964;7.628;2024-03-08T07:42:48;29.00;;;18.60;;
2998;SDS011;1509;51.964;7.628;2024-03-08T07:45:14;30.07;;;19.37;;
2998;SDS011;1509;51.964;7.628;2024-03-08T07:47:41;29.57;;;18.27;;
2998;SDS011;1509;51.964;7.628;2024-03-08T07:50:07;30.97;;;18.60;;
2998;SDS011;1509;51.964;7.628;2024-03-08T07:52:35;36.20;;;21.80;;
2998;SDS011;1509;51.964;7.628;2024-03-08T07:55:04;28.03;;;18.50;;
2998;SDS011;1509;51.964;7.628;2024-03-08T07:57:31;30.20;;;20.00;;
2998;SDS011;1509;51.964;7.628;2024-03-08T07:59:57;32.20;;;20.50;;
2998;SDS011;1509;51.964;7.628;2024-03-08T08:02:23;32.67;;;20.77;;
2998;SDS011;1509;51.964;7.628;2024-03-08T08:04:48;29.47;;;20.57;;
2998;SDS011;1509;51.964;7.628;2024-03-08T08:07:14;35.23;;;18.83;;
2998;SDS011;1509;51.964;7.628;2024-03-08T08:09:40;32.83;;;19.90;;
2998;SDS011;1509;51.964;7.628;2024-03-08T08:12:08;34.00;;;19.57;;
2998;SDS011;1509;51.964;7.628;2024-03-08T08:14:37;33.83;;;20.30;;
2998;SDS011;1509;51.964;7.628;2024-03-08T08:17:04;28.60;;;18.20;;
2998;SDS011;1509;51.964;7.628;2024-03-08T08:19:30;25.00;;;17.20;;
2998;SDS011;1509;51.964;7.628;2024-03-08T08:21:56;31.30;;;18.57;;
2998;SDS011;1509;51.964;7.628;2024-03-08T08:24:22;31.00;;;18.20;;
2998;SDS011;1509;51.964;7.628;2024-03-08T08:26:48;30.20;;;20.37;;
2998;SDS011;1509;51.964;7.628;2024-03-08T08:29:14;27.07;;;19.67;;
2998;SDS011;1509;51.964;7.628;2024-03-08T08:31:39;29.77;;;19.70;;
2998;SDS011;1509;51.964;7.628;2024-03-08T08:34:05;27.80;;;19.40;;
2998;SDS011;1509;51.964;7.628;2024-03-08T08:36:32;29.27;;;20.43;;
2998;SDS011;1509;51.964;7.628;2024-03-08T08:38:58;25.97;;;17.83;;
2998;SDS011;1509;51.964;7.628;2024-03-08T08:41:24;26.37;;;18.87;;
2998;SDS011;1509;51.964;7.628;2024-03-08T08:43:51;26.60;;;18.63;;
2998;SDS011;1509;51.964;7.628;2024-03-08T08:46:17;30.23;;;20.90;;
2998;SDS011;1509;51.964;7.628;2024-03-08T08:48:43;30.87;;;19.60;;
2998;SDS011;1509;51.964;7.628;2024-03-08T08:51:10;26.93;;;18.00;;
2998;SDS011;1509;51.964;7.628;2024-03-08T08:53:40;27.53;;;19.17;;
2998;SDS011;1509;51.964;7.628;2024-03-08T08:56:08;29.63;;;19.10;;
2998;SDS011;1509;51.964;7.628;2024-03-08T08:58:34;32.60;;;19.93;;
2998;SDS011;1509;51.964;7.628;2024-03-08T09:00:59;27.83;;;19.47;;
2998;SDS011;1509;51.964;7.628;2024-03-08T09:03:26;26.00;;;19.73;;
2998;SDS011;1509;51.964;7.628;2024-03-08T09:05:53;29.20;;;21.10;;
2998;SDS011;1509;51.964;7.628;2024-03-08T09:08:18;26.97;;;19.57;;
2998;SDS011;1509;51.964;7.628;2024-03-08T09:10:44;28.07;;;19.47;;
2998;SDS011;1509;51.964;7.628;2024-03-08T09:13:12;27.13;;;18.53;;
2998;SDS011;1509;51.964;7.628;2024-03-08T09:15:38;30.23;;;20.40;;
2998;SDS011;1509;51.964;7.628;2024-03-08T09:18:05;22.47;;;17.30;;
2998;SDS011;1509;51.964;7.628;2024-03-08T09:20:31;28.60;;;19.73;;
2998;SDS011;1509;51.964;7.628;2024-03-08T09:22:57;31.57;;;22.07;;
2998;SDS011;1509;51.964;7.628;2024-03-08T09:25:23;30.00;;;20.10;;
2998;SDS011;1509;51.964;7.628;2024-03-08T09:27:48;27.17;;;20.53;;
2998;SDS011;1509;51.964;7.628;2024-03-08T09:30:16;28.27;;;19.30;;
2998;SDS011;1509;51.964;7.628;2024-03-08T09:32:43;31.00;;;21.07;;
2998;SDS011;1509;51.964;7.628;2024-03-08T09:35:08;31.83;;;19.10;;
2998;SDS011;1509;51.964;7.628;2024-03-08T09:37:34;31.90;;;18.97;;
2998;SDS011;1509;51.964;7.628;2024-03-08T09:40:02;27.80;;;18.30;;
2998;SDS011;1509;51.964;7.628;2024-03-08T09:42:34;27.60;;;19.67;;
2998;SDS011;1509;51.964;7.628;2024-03-08T09:45:03;24.60;;;18.10;;
2998;SDS011;1509;51.964;7.628;2024-03-08T09:47:35;26.13;;;18.97;;
2998;SDS011;1509;51.964;7.628;2024-03-08T09:50:05;29.90;;;20.10;;
2998;SDS011;1509;51.964;7.628;2024-03-08T09:52:56;29.87;;;19.57;;
2998;SDS011;1509;51.964;7.628;2024-03-08T09:55:23;25.13;;;20.33;;
2998;SDS011;1509;51.964;7.628;2024-03-08T09:57:53;28.80;;;19.87;;
2998;SDS011;1509;51.964;7.628;2024-03-08T10:00:38;29.37;;;17.60;;
2998;SDS011;1509;51.964;7.628;2024-03-08T10:03:04;26.40;;;18.80;;
2998;SDS011;1509;51.964;7.628;2024-03-08T10:05:30;24.33;;;18.40;;
2998;SDS011;1509;51.964;7.628;2024-03-08T10:07:58;28.87;;;19.80;;
2998;SDS011;1509;51.964;7.628;2024-03-08T10:10:23;30.37;;;18.80;;
2998;SDS011;1509;51.964;7.628;2024-03-08T10:12:49;22.83;;;17.83;;
2998;SDS011;1509;51.964;7.628;2024-03-08T10:15:21;26.88;;;18.75;;
2998;SDS011;1509;51.964;7.628;2024-03-08T10:17:53;25.70;;;18.30;;
2998;SDS011;1509;51.964;7.628;2024-03-08T10:20:18;28.10;;;19.10;;
2998;SDS011;1509;51.964;7.628;2024-03-08T10:22:44;28.73;;;19.30;;
2998;SDS011;1509;51.964;7.628;2024-03-08T10:25:11;25.80;;;18.07;;
2998;SDS011;1509;51.964;7.628;2024-03-08T10:27:38;27.47;;;18.83;;
2998;SDS011;1509;51.964;7.628;2024-03-08T10:30:10;27.17;;;19.90;;
2998;SDS011;1509;51.964;7.628;2024-03-08T10:32:40;23.03;;;17.07;;
2998;SDS011;1509;51.964;7.628;2024-03-08T10:35:06;27.90;;;16.80;;
2998;SDS011;1509;51.964;7.628;2024-03-08T10:37:40;25.63;;;18.90;;
2998;SDS011;1509;51.964;7.628;2024-03-08T10:40:23;25.40;;;18.60;;
2998;SDS011;1509;51.964;7.628;2024-03-08T10:42:53;23.63;;;17.30;;
2998;SDS011;1509;51.964;7.628;2024-03-08T10:45:36;25.30;;;16.60;;
2998;SDS011;1509;51.964;7.628;2024-03-08T10:48:20;22.17;;;17.53;;
2998;SDS011;1509;51.964;7.628;2024-03-08T10:50:57;26.10;;;16.93;;
2998;SDS011;1509;51.964;7.628;2024-03-08T10:53:28;25.07;;;16.23;;
2998;SDS011;1509;51.964;7.628;2024-03-08T10:55:57;20.27;;;15.73;;
2998;SDS011;1509;51.964;7.628;2024-03-08T10:58:26;22.80;;;16.30;;
2998;SDS011;1509;51.964;7.628;2024-03-08T11:00:55;24.27;;;17.33;;
2998;SDS011;1509;51.964;7.628;2024-03-08T11:06:19;23.40;;;16.57;;
2998;SDS011;1509;51.964;7.628;2024-03-08T11:08:48;23.60;;;17.73;;
2998;SDS011;1509;51.964;7.628;2024-03-08T11:11:25;24.27;;;17.50;;
2998;SDS011;1509;51.964;7.628;2024-03-08T11:14:02;27.03;;;16.97;;
2998;SDS011;1509;51.964;7.628;2024-03-08T11:21:36;22.70;;;16.07;;
2998;SDS011;1509;51.964;7.628;2024-03-08T11:24:11;21.03;;;16.20;;
2998;SDS011;1509;51.964;7.628;2024-03-08T11:26:41;20.93;;;16.63;;
2998;SDS011;1509;51.964;7.628;2024-03-08T11:32:08;20.50;;;14.70;;
2998;SDS011;1509;51.964;7.628;2024-03-08T11:34:35;21.70;;;15.13;;
2998;SDS011;1509;51.964;7.628;2024-03-08T11:37:15;23.10;;;14.83;;
2998;SDS011;1509;51.964;7.628;2024-03-08T11:39:54;16.30;;;13.67;;
2998;SDS011;1509;51.964;7.628;2024-03-08T11:42:29;21.00;;;15.20;;
2998;SDS011;1509;51.964;7.628;2024-03-08T11:44:55;20.60;;;15.30;;
2998;SDS011;1509;51.964;7.628;2024-03-08T11:47:21;19.97;;;15.20;;
2998;SDS011;1509;51.964;7.628;2024-03-08T11:49:47;19.83;;;14.00;;
2998;SDS011;1509;51.964;7.628;2024-03-08T11:52:17;19.10;;;14.33;;
2998;SDS011;1509;51.964;7.628;2024-03-08T11:54:47;20.70;;;15.33;;
2998;SDS011;1509;51.964;7.628;2024-03-08T11:57:19;19.47;;;15.17;;
2998;SDS011;1509;51.964;7.628;2024-03-08T11:59:52;23.10;;;15.40;;
2998;SDS011;1509;51.964;7.628;2024-03-08T12:02:18;20.73;;;15.90;;
2998;SDS011;1509;51.964;7.628;2024-03-08T12:04:46;17.33;;;14.73;;
2998;SDS011;1509;51.964;7.628;2024-03-08T12:07:12;19.10;;;14.97;;
2998;SDS011;1509;51.964;7.628;2024-03-08T12:09:41;19.13;;;14.80;;
2998;SDS011;1509;51.964;7.628;2024-03-08T12:12:11;24.57;;;16.60;;
2998;SDS011;1509;51.964;7.628;2024-03-08T12:14:37;20.70;;;14.30;;
2998;SDS011;1509;51.964;7.628;2024-03-08T12:17:03;20.33;;;15.20;;
2998;SDS011;1509;51.964;7.628;2024-03-08T12:19:30;18.77;;;13.90;;
2998;SDS011;1509;51.964;7.628;2024-03-08T12:21:57;20.40;;;12.90;;
2998;SDS011;1509;51.964;7.628;2024-03-08T12:24:34;17.90;;;14.13;;
2998;SDS011;1509;51.964;7.628;2024-03-08T12:27:17;18.47;;;12.93;;
2998;SDS011;1509;51.964;7.628;2024-03-08T12:29:44;17.20;;;12.57;;
2998;SDS011;1509;51.964;7.628;2024-03-08T12:32:10;21.73;;;14.90;;
2998;SDS011;1509;51.964;7.628;2024-03-08T12:34:36;17.80;;;13.20;;
2998;SDS011;1509;51.964;7.628;2024-03-08T12:37:02;19.70;;;14.70;;
2998;SDS011;1509;51.964;7.628;2024-03-08T12:39:29;20.37;;;14.70;;
2998;SDS011;1509;51.964;7.628;2024-03-08T12:41:55;18.97;;;13.37;;
2998;SDS011;1509;51.964;7.628;2024-03-08T12:44:25;20.00;;;14.40;;
2998;SDS011;1509;51.964;7.628;2024-03-08T12:46:51;17.37;;;13.27;;
2998;SDS011;1509;51.964;7.628;2024-03-08T12:49:18;17.47;;;13.80;;
2998;SDS011;1509;51.964;7.628;2024-03-08T12:51:47;17.20;;;13.30;;
2998;SDS011;1509;51.964;7.628;2024-03-08T12:54:12;19.73;;;13.80;;
2998;SDS011;1509;51.964;7.628;2024-03-08T12:56:38;16.70;;;12.90;;
2998;SDS011;1509;51.964;7.628;2024-03-08T12:59:05;18.43;;;13.57;;
2998;SDS011;1509;51.964;7.628;2024-03-08T13:01:41;18.20;;;13.20;;
2998;SDS011;1509;51.964;7.628;2024-03-08T13:04:07;18.60;;;14.23;;
2998;SDS011;1509;51.964;7.628;2024-03-08T13:06:36;18.17;;;13.73;;
2998;SDS011;1509;51.964;7.628;2024-03-08T13:09:01;18.83;;;13.57;;
2998;SDS011;1509;51.964;7.628;2024-03-08T13:11:30;17.70;;;14.17;;
2998;SDS011;1509;51.964;7.628;2024-03-08T13:14:01;19.03;;;13.37;;
2998;SDS011;1509;51.964;7.628;2024-03-08T13:16:29;22.27;;;14.60;;
2998;SDS011;1509;51.964;7.628;2024-03-08T13:18:54;24.47;;;14.33;;
2998;SDS011;1509;51.964;7.628;2024-03-08T13:21:22;19.77;;;15.00;;
2998;SDS011;1509;51.964;7.628;2024-03-08T13:23:49;19.20;;;14.20;;
2998;SDS011;1509;51.964;7.628;2024-03-08T13:26:17;18.63;;;14.43;;
2998;SDS011;1509;51.964;7.628;2024-03-08T13:28:46;19.17;;;14.37;;
2998;SDS011;1509;51.964;7.628;2024-03-08T13:31:13;18.90;;;14.27;;
2998;SDS011;1509;51.964;7.628;2024-03-08T13:33:40;18.10;;;14.40;;
2998;SDS011;1509;51.964;7.628;2024-03-08T13:36:07;21.93;;;14.87;;
2998;SDS011;1509;51.964;7.628;2024-03-08T13:38:46;20.73;;;14.47;;
2998;SDS011;1509;51.964;7.628;2024-03-08T13:41:13;20.63;;;14.37;;
2998;SDS011;1509;51.964;7.628;2024-03-08T13:43:41;21.20;;;15.07;;
2998;SDS011;1509;51.964;7.628;2024-03-08T13:46:08;18.80;;;13.90;;
2998;SDS011;1509;51.964;7.628;2024-03-08T13:48:35;18.93;;;14.33;;
2998;SDS011;1509;51.964;7.628;2024-03-08T13:51:02;16.20;;;13.60;;
2998;SDS011;1509;51.964;7.628;2024-03-08T13:53:29;17.93;;;13.50;;
2998;SDS011;1509;51.964;7.628;2024-03-08T13:55:55;24.67;;;16.83;;
2998;SDS011;1509;51.964;7.628;2024-03-08T13:58:21;19.80;;;13.87;;
2998;SDS011;1509;51.964;7.628;2024-03-08T14:00:47;22.67;;;14.80;;
2998;SDS011;1509;51.964;7.628;2024-03-08T14:03:13;21.60;;;15.87;;
2998;SDS011;1509;51.964;7.628;2024-03-08T14:05:39;19.63;;;14.30;;
2998;SDS011;1509;51.964;7.628;2024-03-08T14:08:06;22.20;;;14.60;;
2998;SDS011;1509;51.964;7.628;2024-03-08T14:10:33;21.50;;;14.93;;
2998;SDS011;1509;51.964;7.628;2024-03-08T14:12:59;21.47;;;15.50;;
2998;SDS011;1509;51.964;7.628;2024-03-08T14:15:25;21.20;;;14.73;;
2998;SDS011;1509;51.964;7.628;2024-03-08T14:17:55;18.40;;;14.60;;
2998;SDS011;1509;51.964;7.628;2024-03-08T14:20:21;18.40;;;14.17;;
2998;SDS011;1509;51.964;7.628;2024-03-08T14:22:53;21.23;;;15.43;;
2998;SDS011;1509;51.964;7.628;2024-03-08T14:25:20;23.40;;;15.93;;
2998;SDS011;1509;51.964;7.628;2024-03-08T14:27:48;19.90;;;15.40;;
2998;SDS011;1509;51.964;7.628;2024-03-08T14:30:14;23.70;;;15.83;;
2998;SDS011;1509;51.964;7.628;2024-03-08T14:32:57;19.97;;;14.57;;
2998;SDS011;1509;51.964;7.628;2024-03-08T14:35:30;19.00;;;15.00;;
2998;SDS011;1509;51.964;7.628;2024-03-08T14:37:56;20.60;;;15.20;;
2998;SDS011;1509;51.964;7.628;2024-03-08T14:40:22;22.83;;;14.37;;
2998;SDS011;1509;51.964;7.628;2024-03-08T14:42:51;26.13;;;14.80;;
2998;SDS011;1509;51.964;7.628;2024-03-08T14:45:17;24.37;;;16.97;;
2998;SDS011;1509;51.964;7.628;2024-03-08T14:47:45;21.73;;;15.77;;
2998;SDS011;1509;51.964;7.628;2024-03-08T14:50:16;24.60;;;16.67;;
2998;SDS011;1509;51.964;7.628;2024-03-08T14:52:42;23.43;;;15.57;;
2998;SDS011;1509;51.964;7.628;2024-03-08T14:55:08;21.80;;;14.67;;
2998;SDS011;1509;51.964;7.628;2024-03-08T14:57:36;23.10;;;15.90;;
2998;SDS011;1509;51.964;7.628;2024-03-08T15:00:01;26.00;;;16.57;;